sensor_id;sensor_type;location;lat;lon;timestamp;P1;durP1;ratioP1;P2;durP2;ratioP2
51732;SDS011;39139;53.144;6.244;2022-11-14T00:00:07;42.50;;;22.02;;
51732;SDS011;39139;53.144;6.244;2022-11-14T00:02:35;45.83;;;22.95;;
51732;SDS011;39139;53.144;6.244;2022-11-14T00:05:01;42.63;;;21.10;;
51732;SDS011;39139;53.144;6.244;2022-11-14T00:07:30;44.58;;;22.13;;
51732;SDS011;39139;53.144;6.244;2022-11-14T00:09:56;43.47;;;22.38;;
51732;SDS011;39139;53.144;6.244;2022-11-14T00:12:22;41.80;;;22.67;;
51732;SDS011;39139;53.144;6.244;2022-11-14T00:14:48;43.25;;;21.85;;
51732;SDS011;39139;53.144;6.244;2022-11-14T00:17:13;43.92;;;25.70;;
51732;SDS011;39139;53.144;6.244;2022-11-14T00:19:39;41.28;;;21.83;;
51732;SDS011;39139;53.144;6.244;2022-11-14T00:22:05;43.92;;;23.52;;
51732;SDS011;39139;53.144;6.244;2022-11-14T00:24:30;39.40;;;22.67;;
51732;SDS011;39139;53.144;6.244;2022-11-14T00:26:56;40.65;;;21.15;;
51732;SDS011;39139;53.144;6.244;2022-11-14T00:29:21;45.58;;;22.95;;
51732;SDS011;39139;53.144;6.244;2022-11-14T00:31:47;41.58;;;21.88;;
51732;SDS011;39139;53.144;6.244;2022-11-14T00:34:13;38.58;;;22.10;;
51732;SDS011;39139;53.144;6.244;2022-11-14T00:36:39;38.15;;;20.85;;
51732;SDS011;39139;53.144;6.244;2022-11-14T00:39:04;40.03;;;21.70;;
51732;SDS011;39139;53.144;6.244;2022-11-14T00:41:30;38.35;;;22.02;;
51732;SDS011;39139;53.144;6.244;2022-11-14T00:43:56;42.58;;;22.60;;
51732;SDS011;39139;53.144;6.244;2022-11-14T00:46:21;42.63;;;23.25;;
51732;SDS011;39139;53.144;6.244;2022-11-14T00:48:47;36.03;;;21.65;;
51732;SDS011;39139;53.144;6.244;2022-11-14T00:51:12;37.30;;;21.70;;
51732;SDS011;39139;53.144;6.244;2022-11-14T00:53:38;40.90;;;22.38;;
51732;SDS011;39139;53.144;6.244;2022-11-14T00:56:04;36.50;;;21.80;;
51732;SDS011;39139;53.144;6.244;2022-11-14T00:58:30;42.95;;;22.70;;
51732;SDS011;39139;53.144;6.244;2022-11-14T01:00:56;34.78;;;20.25;;
51732;SDS011;39139;53.144;6.244;2022-11-14T01:03:21;36.63;;;22.13;;
51732;SDS011;39139;53.144;6.244;2022-11-14T01:05:47;37.58;;;22.00;;
51732;SDS011;39139;53.144;6.244;2022-11-14T01:08:15;39.35;;;23.92;;
51732;SDS011;39139;53.144;6.244;2022-11-14T01:10:42;39.00;;;22.58;;
51732;SDS011;39139;53.144;6.244;2022-11-14T01:13:13;38.60;;;22.60;;
51732;SDS011;39139;53.144;6.244;2022-11-14T01:15:40;39.35;;;21.98;;
51732;SDS011;39139;53.144;6.244;2022-11-14T01:18:12;35.55;;;23.02;;
51732;SDS011;39139;53.144;6.244;2022-11-14T01:20:43;36.33;;;21.63;;
51732;SDS011;39139;53.144;6.244;2022-11-14T01:23:11;33.70;;;22.17;;
51732;SDS011;39139;53.144;6.244;2022-11-14T01:25:38;40.90;;;23.73;;
51732;SDS011;39139;53.144;6.244;2022-11-14T01:28:05;39.55;;;22.70;;
51732;SDS011;39139;53.144;6.244;2022-11-14T01:30:35;40.72;;;24.13;;
51732;SDS011;39139;53.144;6.244;2022-11-14T01:33:01;40.80;;;23.33;;
51732;SDS011;39139;53.144;6.244;2022-11-14T01:35:28;42.03;;;24.80;;
51732;SDS011;39139;53.144;6.244;2022-11-14T01:37:54;39.47;;;23.90;;
51732;SDS011;39139;53.144;6.244;2022-11-14T01:40:19;41.10;;;25.02;;
51732;SDS011;39139;53.144;6.244;2022-11-14T01:48:19;39.97;;;24.42;;
51732;SDS011;39139;53.144;6.244;2022-11-14T01:50:49;41.33;;;24.45;;
51732;SDS011;39139;53.144;6.244;2022-11-14T01:53:28;38.58;;;23.67;;
51732;SDS011;39139;53.144;6.244;2022-11-14T01:55:55;44.22;;;28.02;;
51732;SDS011;39139;53.144;6.244;2022-11-14T01:58:24;49.17;;;28.55;;
51732;SDS011;39139;53.144;6.244;2022-11-14T02:00:51;49.13;;;28.00;;
51732;SDS011;39139;53.144;6.244;2022-11-14T02:03:17;46.72;;;29.08;;
51732;SDS011;39139;53.144;6.244;2022-11-14T02:05:44;46.92;;;28.90;;
51732;SDS011;39139;53.144;6.244;2022-11-14T02:08:11;49.63;;;30.45;;
51732;SDS011;39139;53.144;6.244;2022-11-14T02:10:38;52.58;;;30.85;;
51732;SDS011;39139;53.144;6.244;2022-11-14T02:13:03;52.40;;;31.42;;
51732;SDS011;39139;53.144;6.244;2022-11-14T02:15:29;49.97;;;31.38;;
51732;SDS011;39139;53.144;6.244;2022-11-14T02:17:55;54.38;;;32.03;;
51732;SDS011;39139;53.144;6.244;2022-11-14T02:20:23;53.13;;;31.92;;
51732;SDS011;39139;53.144;6.244;2022-11-14T02:22:53;50.03;;;30.63;;
51732;SDS011;39139;53.144;6.244;2022-11-14T02:25:19;52.75;;;32.13;;
51732;SDS011;39139;53.144;6.244;2022-11-14T02:27:45;53.83;;;32.25;;
51732;SDS011;39139;53.144;6.244;2022-11-14T02:30:13;54.97;;;32.80;;
51732;SDS011;39139;53.144;6.244;2022-11-14T02:32:41;49.42;;;30.85;;
51732;SDS011;39139;53.144;6.244;2022-11-14T02:35:06;55.40;;;33.75;;
51732;SDS011;39139;53.144;6.244;2022-11-14T02:37:32;59.53;;;37.03;;
51732;SDS011;39139;53.144;6.244;2022-11-14T02:39:58;64.28;;;37.00;;
51732;SDS011;39139;53.144;6.244;2022-11-14T02:42:24;71.72;;;38.67;;
51732;SDS011;39139;53.144;6.244;2022-11-14T02:44:49;62.10;;;38.28;;
51732;SDS011;39139;53.144;6.244;2022-11-14T02:47:15;65.05;;;39.60;;
51732;SDS011;39139;53.144;6.244;2022-11-14T02:49:40;72.50;;;40.78;;
51732;SDS011;39139;53.144;6.244;2022-11-14T02:52:06;70.78;;;41.83;;
51732;SDS011;39139;53.144;6.244;2022-11-14T02:54:32;72.53;;;40.78;;
51732;SDS011;39139;53.144;6.244;2022-11-14T02:56:57;70.22;;;41.25;;
51732;SDS011;39139;53.144;6.244;2022-11-14T02:59:23;72.03;;;40.78;;
51732;SDS011;39139;53.144;6.244;2022-11-14T03:01:48;69.93;;;40.90;;
51732;SDS011;39139;53.144;6.244;2022-11-14T03:04:14;72.00;;;41.13;;
51732;SDS011;39139;53.144;6.244;2022-11-14T03:06:40;75.95;;;40.40;;
51732;SDS011;39139;53.144;6.244;2022-11-14T03:09:05;77.45;;;44.33;;
51732;SDS011;39139;53.144;6.244;2022-11-14T03:11:31;73.97;;;40.83;;
51732;SDS011;39139;53.144;6.244;2022-11-14T03:13:58;73.85;;;41.33;;
51732;SDS011;39139;53.144;6.244;2022-11-14T03:16:24;77.55;;;42.53;;
51732;SDS011;39139;53.144;6.244;2022-11-14T03:18:49;72.13;;;41.15;;
51732;SDS011;39139;53.144;6.244;2022-11-14T03:21:17;72.85;;;40.97;;
51732;SDS011;39139;53.144;6.244;2022-11-14T03:23:44;73.35;;;41.38;;
51732;SDS011;39139;53.144;6.244;2022-11-14T03:26:10;74.22;;;42.38;;
51732;SDS011;39139;53.144;6.244;2022-11-14T03:28:37;72.97;;;41.38;;
51732;SDS011;39139;53.144;6.244;2022-11-14T03:31:03;73.68;;;40.15;;
51732;SDS011;39139;53.144;6.244;2022-11-14T03:33:29;76.78;;;42.35;;
51732;SDS011;39139;53.144;6.244;2022-11-14T03:35:55;70.88;;;38.97;;
51732;SDS011;39139;53.144;6.244;2022-11-14T03:38:21;70.05;;;40.33;;
51732;SDS011;39139;53.144;6.244;2022-11-14T03:40:47;72.50;;;40.60;;
51732;SDS011;39139;53.144;6.244;2022-11-14T03:43:14;74.65;;;41.10;;
51732;SDS011;39139;53.144;6.244;2022-11-14T03:45:40;73.97;;;40.75;;
51732;SDS011;39139;53.144;6.244;2022-11-14T03:48:06;71.00;;;39.95;;
51732;SDS011;39139;53.144;6.244;2022-11-14T03:50:32;73.30;;;39.15;;
51732;SDS011;39139;53.144;6.244;2022-11-14T03:52:58;73.82;;;40.08;;
51732;SDS011;39139;53.144;6.244;2022-11-14T03:55:23;71.45;;;40.28;;
51732;SDS011;39139;53.144;6.244;2022-11-14T03:57:49;68.43;;;40.72;;
51732;SDS011;39139;53.144;6.244;2022-11-14T04:00:15;71.60;;;40.65;;
51732;SDS011;39139;53.144;6.244;2022-11-14T04:02:41;74.60;;;40.88;;
51732;SDS011;39139;53.144;6.244;2022-11-14T04:05:07;75.43;;;43.10;;
51732;SDS011;39139;53.144;6.244;2022-11-14T04:07:33;72.93;;;40.85;;
51732;SDS011;39139;53.144;6.244;2022-11-14T04:09:59;69.85;;;39.08;;
51732;SDS011;39139;53.144;6.244;2022-11-14T04:12:24;72.25;;;41.42;;
51732;SDS011;39139;53.144;6.244;2022-11-14T04:14:50;77.78;;;42.22;;
51732;SDS011;39139;53.144;6.244;2022-11-14T04:17:16;65.13;;;39.38;;
51732;SDS011;39139;53.144;6.244;2022-11-14T04:19:41;70.65;;;40.05;;
51732;SDS011;39139;53.144;6.244;2022-11-14T04:22:07;72.75;;;39.80;;
51732;SDS011;39139;53.144;6.244;2022-11-14T04:24:33;69.53;;;39.63;;
51732;SDS011;39139;53.144;6.244;2022-11-14T04:26:58;71.95;;;40.95;;
51732;SDS011;39139;53.144;6.244;2022-11-14T04:29:24;73.95;;;42.17;;
51732;SDS011;39139;53.144;6.244;2022-11-14T04:31:50;67.32;;;39.00;;
51732;SDS011;39139;53.144;6.244;2022-11-14T04:34:15;71.90;;;41.00;;
51732;SDS011;39139;53.144;6.244;2022-11-14T04:36:41;70.82;;;40.00;;
51732;SDS011;39139;53.144;6.244;2022-11-14T04:39:07;68.03;;;38.65;;
51732;SDS011;39139;53.144;6.244;2022-11-14T04:41:33;72.03;;;41.25;;
51732;SDS011;39139;53.144;6.244;2022-11-14T04:43:58;66.90;;;39.42;;
51732;SDS011;39139;53.144;6.244;2022-11-14T04:46:24;68.03;;;39.30;;
51732;SDS011;39139;53.144;6.244;2022-11-14T04:48:49;77.38;;;41.78;;
51732;SDS011;39139;53.144;6.244;2022-11-14T04:51:15;71.72;;;38.90;;
51732;SDS011;39139;53.144;6.244;2022-11-14T04:53:41;71.90;;;40.03;;
51732;SDS011;39139;53.144;6.244;2022-11-14T04:56:06;72.63;;;40.28;;
51732;SDS011;39139;53.144;6.244;2022-11-14T04:58:32;73.15;;;42.70;;
51732;SDS011;39139;53.144;6.244;2022-11-14T05:00:57;70.97;;;39.55;;
51732;SDS011;39139;53.144;6.244;2022-11-14T05:03:23;70.80;;;39.95;;
51732;SDS011;39139;53.144;6.244;2022-11-14T05:05:49;71.95;;;40.47;;
51732;SDS011;39139;53.144;6.244;2022-11-14T05:08:15;66.10;;;38.72;;
51732;SDS011;39139;53.144;6.244;2022-11-14T05:10:41;75.78;;;41.00;;
51732;SDS011;39139;53.144;6.244;2022-11-14T05:13:08;69.40;;;39.47;;
51732;SDS011;39139;53.144;6.244;2022-11-14T05:15:34;71.63;;;40.63;;
51732;SDS011;39139;53.144;6.244;2022-11-14T05:18:00;71.82;;;41.72;;
51732;SDS011;39139;53.144;6.244;2022-11-14T05:20:25;72.57;;;40.83;;
51732;SDS011;39139;53.144;6.244;2022-11-14T05:22:52;68.13;;;40.20;;
51732;SDS011;39139;53.144;6.244;2022-11-14T05:25:19;67.78;;;39.20;;
51732;SDS011;39139;53.144;6.244;2022-11-14T05:27:45;73.15;;;42.08;;
51732;SDS011;39139;53.144;6.244;2022-11-14T05:30:11;72.15;;;39.22;;
51732;SDS011;39139;53.144;6.244;2022-11-14T05:32:37;68.82;;;38.22;;
51732;SDS011;39139;53.144;6.244;2022-11-14T05:35:03;66.72;;;39.47;;
51732;SDS011;39139;53.144;6.244;2022-11-14T05:37:29;67.22;;;38.20;;
51732;SDS011;39139;53.144;6.244;2022-11-14T05:39:55;64.68;;;38.70;;
51732;SDS011;39139;53.144;6.244;2022-11-14T05:42:20;70.35;;;39.03;;
51732;SDS011;39139;53.144;6.244;2022-11-14T05:44:46;68.97;;;38.30;;
51732;SDS011;39139;53.144;6.244;2022-11-14T05:47:11;71.75;;;40.25;;
51732;SDS011;39139;53.144;6.244;2022-11-14T05:49:37;68.03;;;39.33;;
51732;SDS011;39139;53.144;6.244;2022-11-14T05:52:03;71.55;;;39.75;;
51732;SDS011;39139;53.144;6.244;2022-11-14T05:54:28;69.93;;;37.58;;
51732;SDS011;39139;53.144;6.244;2022-11-14T05:56:54;66.25;;;38.25;;
51732;SDS011;39139;53.144;6.244;2022-11-14T05:59:22;69.07;;;39.60;;
51732;SDS011;39139;53.144;6.244;2022-11-14T06:01:48;67.07;;;39.10;;
51732;SDS011;39139;53.144;6.244;2022-11-14T06:04:14;71.20;;;40.13;;
51732;SDS011;39139;53.144;6.244;2022-11-14T06:06:39;67.10;;;38.30;;
51732;SDS011;39139;53.144;6.244;2022-11-14T06:09:05;62.88;;;38.33;;
51732;SDS011;39139;53.144;6.244;2022-11-14T06:11:31;70.88;;;38.60;;
51732;SDS011;39139;53.144;6.244;2022-11-14T06:13:57;69.50;;;39.10;;
51732;SDS011;39139;53.144;6.244;2022-11-14T06:16:22;68.53;;;41.45;;
51732;SDS011;39139;53.144;6.244;2022-11-14T06:18:51;67.28;;;38.47;;
51732;SDS011;39139;53.144;6.244;2022-11-14T06:21:17;66.57;;;39.20;;
51732;SDS011;39139;53.144;6.244;2022-11-14T06:23:44;66.13;;;39.00;;
51732;SDS011;39139;53.144;6.244;2022-11-14T06:28:39;63.30;;;38.00;;
51732;SDS011;39139;53.144;6.244;2022-11-14T06:31:04;69.55;;;40.22;;
51732;SDS011;39139;53.144;6.244;2022-11-14T06:33:33;68.03;;;38.47;;
51732;SDS011;39139;53.144;6.244;2022-11-14T06:38:27;61.58;;;37.17;;
51732;SDS011;39139;53.144;6.244;2022-11-14T06:41:04;68.22;;;39.30;;
51732;SDS011;39139;53.144;6.244;2022-11-14T06:43:38;67.57;;;37.33;;
51732;SDS011;39139;53.144;6.244;2022-11-14T06:46:05;67.50;;;39.95;;
51732;SDS011;39139;53.144;6.244;2022-11-14T06:48:32;71.35;;;41.22;;
51732;SDS011;39139;53.144;6.244;2022-11-14T06:50:59;72.13;;;42.67;;
51732;SDS011;39139;53.144;6.244;2022-11-14T06:53:27;73.13;;;44.60;;
51732;SDS011;39139;53.144;6.244;2022-11-14T06:56:01;76.53;;;43.20;;
51732;SDS011;39139;53.144;6.244;2022-11-14T06:58:45;78.63;;;45.67;;
51732;SDS011;39139;53.144;6.244;2022-11-14T07:01:14;84.35;;;48.08;;
51732;SDS011;39139;53.144;6.244;2022-11-14T07:03:49;79.63;;;45.13;;
51732;SDS011;39139;53.144;6.244;2022-11-14T07:06:23;77.22;;;45.42;;
51732;SDS011;39139;53.144;6.244;2022-11-14T07:08:50;75.65;;;42.92;;
51732;SDS011;39139;53.144;6.244;2022-11-14T07:11:21;76.18;;;44.15;;
51732;SDS011;39139;53.144;6.244;2022-11-14T07:13:51;80.43;;;44.17;;
51732;SDS011;39139;53.144;6.244;2022-11-14T07:16:18;76.80;;;45.45;;
51732;SDS011;39139;53.144;6.244;2022-11-14T07:18:44;74.90;;;44.05;;
51732;SDS011;39139;53.144;6.244;2022-11-14T07:21:10;77.47;;;45.38;;
51732;SDS011;39139;53.144;6.244;2022-11-14T07:23:37;80.60;;;44.97;;
51732;SDS011;39139;53.144;6.244;2022-11-14T07:26:04;81.93;;;46.95;;
51732;SDS011;39139;53.144;6.244;2022-11-14T07:28:31;85.50;;;46.33;;
51732;SDS011;39139;53.144;6.244;2022-11-14T07:30:58;77.90;;;45.63;;
51732;SDS011;39139;53.144;6.244;2022-11-14T07:33:28;80.20;;;45.53;;
51732;SDS011;39139;53.144;6.244;2022-11-14T07:35:54;80.40;;;45.50;;
51732;SDS011;39139;53.144;6.244;2022-11-14T07:38:19;85.72;;;46.75;;
51732;SDS011;39139;53.144;6.244;2022-11-14T07:43:20;81.15;;;45.13;;
51732;SDS011;39139;53.144;6.244;2022-11-14T07:45:46;77.45;;;42.22;;
51732;SDS011;39139;53.144;6.244;2022-11-14T07:48:12;77.82;;;44.33;;
51732;SDS011;39139;53.144;6.244;2022-11-14T07:50:37;75.93;;;45.05;;
51732;SDS011;39139;53.144;6.244;2022-11-14T07:53:03;74.75;;;43.45;;
51732;SDS011;39139;53.144;6.244;2022-11-14T07:55:28;78.97;;;44.40;;
51732;SDS011;39139;53.144;6.244;2022-11-14T07:57:54;75.43;;;41.30;;
51732;SDS011;39139;53.144;6.244;2022-11-14T08:00:23;78.90;;;43.22;;
51732;SDS011;39139;53.144;6.244;2022-11-14T08:02:49;80.55;;;44.58;;
51732;SDS011;39139;53.144;6.244;2022-11-14T08:05:15;80.13;;;43.00;;
51732;SDS011;39139;53.144;6.244;2022-11-14T08:07:41;76.88;;;42.67;;
51732;SDS011;39139;53.144;6.244;2022-11-14T08:10:07;72.68;;;42.42;;
51732;SDS011;39139;53.144;6.244;2022-11-14T08:12:35;74.65;;;41.58;;
51732;SDS011;39139;53.144;6.244;2022-11-14T08:15:03;77.85;;;42.78;;
51732;SDS011;39139;53.144;6.244;2022-11-14T08:17:30;82.68;;;42.35;;
51732;SDS011;39139;53.144;6.244;2022-11-14T08:19:56;73.97;;;41.92;;
51732;SDS011;39139;53.144;6.244;2022-11-14T08:22:21;74.63;;;40.53;;
51732;SDS011;39139;53.144;6.244;2022-11-14T08:24:47;78.25;;;40.80;;
51732;SDS011;39139;53.144;6.244;2022-11-14T08:27:13;78.53;;;43.40;;
51732;SDS011;39139;53.144;6.244;2022-11-14T08:29:38;74.85;;;40.42;;
51732;SDS011;39139;53.144;6.244;2022-11-14T08:32:04;79.55;;;40.55;;
51732;SDS011;39139;53.144;6.244;2022-11-14T08:34:30;74.78;;;41.72;;
51732;SDS011;39139;53.144;6.244;2022-11-14T08:36:55;66.90;;;38.80;;
51732;SDS011;39139;53.144;6.244;2022-11-14T08:39:22;73.95;;;41.85;;
51732;SDS011;39139;53.144;6.244;2022-11-14T08:41:47;76.18;;;41.67;;
51732;SDS011;39139;53.144;6.244;2022-11-14T08:44:13;81.80;;;40.70;;
51732;SDS011;39139;53.144;6.244;2022-11-14T08:46:39;78.22;;;42.22;;
51732;SDS011;39139;53.144;6.244;2022-11-14T08:49:05;79.18;;;42.45;;
51732;SDS011;39139;53.144;6.244;2022-11-14T08:51:30;79.60;;;41.50;;
51732;SDS011;39139;53.144;6.244;2022-11-14T08:53:56;76.20;;;40.85;;
51732;SDS011;39139;53.144;6.244;2022-11-14T08:56:21;78.18;;;42.30;;
51732;SDS011;39139;53.144;6.244;2022-11-14T08:58:47;81.43;;;43.78;;
51732;SDS011;39139;53.144;6.244;2022-11-14T09:01:13;78.28;;;43.35;;
51732;SDS011;39139;53.144;6.244;2022-11-14T09:03:38;81.03;;;40.83;;
51732;SDS011;39139;53.144;6.244;2022-11-14T09:06:04;71.72;;;40.55;;
51732;SDS011;39139;53.144;6.244;2022-11-14T09:08:30;76.97;;;43.30;;
51732;SDS011;39139;53.144;6.244;2022-11-14T09:10:58;73.72;;;40.40;;
51732;SDS011;39139;53.144;6.244;2022-11-14T09:13:25;70.53;;;39.15;;
51732;SDS011;39139;53.144;6.244;2022-11-14T09:15:51;75.70;;;42.40;;
51732;SDS011;39139;53.144;6.244;2022-11-14T09:18:17;75.05;;;42.05;;
51732;SDS011;39139;53.144;6.244;2022-11-14T09:20:43;73.57;;;42.17;;
51732;SDS011;39139;53.144;6.244;2022-11-14T09:23:09;74.40;;;42.60;;
51732;SDS011;39139;53.144;6.244;2022-11-14T09:25:35;79.25;;;42.75;;
51732;SDS011;39139;53.144;6.244;2022-11-14T09:28:04;76.00;;;42.03;;
51732;SDS011;39139;53.144;6.244;2022-11-14T09:30:31;70.47;;;38.78;;
51732;SDS011;39139;53.144;6.244;2022-11-14T09:33:01;71.82;;;42.35;;
51732;SDS011;39139;53.144;6.244;2022-11-14T09:35:28;74.07;;;41.33;;
51732;SDS011;39139;53.144;6.244;2022-11-14T09:37:59;67.38;;;39.00;;
51732;SDS011;39139;53.144;6.244;2022-11-14T09:40:29;68.78;;;40.00;;
51732;SDS011;39139;53.144;6.244;2022-11-14T09:43:09;68.28;;;39.25;;
51732;SDS011;39139;53.144;6.244;2022-11-14T09:45:46;66.20;;;38.53;;
51732;SDS011;39139;53.144;6.244;2022-11-14T09:48:19;70.80;;;38.50;;
51732;SDS011;39139;53.144;6.244;2022-11-14T09:51:02;64.18;;;39.15;;
51732;SDS011;39139;53.144;6.244;2022-11-14T09:53:58;61.10;;;38.17;;
51732;SDS011;39139;53.144;6.244;2022-11-14T09:56:45;59.15;;;36.85;;
51732;SDS011;39139;53.144;6.244;2022-11-14T09:59:11;59.38;;;37.58;;
51732;SDS011;39139;53.144;6.244;2022-11-14T10:07:10;56.35;;;35.42;;
51732;SDS011;39139;53.144;6.244;2022-11-14T10:10:06;60.30;;;34.85;;
51732;SDS011;39139;53.144;6.244;2022-11-14T10:12:46;55.33;;;35.05;;
51732;SDS011;39139;53.144;6.244;2022-11-14T10:15:41;53.95;;;32.78;;
51732;SDS011;39139;53.144;6.244;2022-11-14T10:18:41;54.15;;;33.40;;
51732;SDS011;39139;53.144;6.244;2022-11-14T10:21:41;57.08;;;33.33;;
51732;SDS011;39139;53.144;6.244;2022-11-14T10:24:49;53.42;;;34.20;;
51732;SDS011;39139;53.144;6.244;2022-11-14T10:27:27;51.85;;;32.75;;
51732;SDS011;39139;53.144;6.244;2022-11-14T10:32:51;51.00;;;33.60;;
51732;SDS011;39139;53.144;6.244;2022-11-14T10:35:42;50.63;;;34.70;;
51732;SDS011;39139;53.144;6.244;2022-11-14T10:40:53;48.33;;;34.40;;
51732;SDS011;39139;53.144;6.244;2022-11-14T10:45:52;44.22;;;32.05;;
51732;SDS011;39139;53.144;6.244;2022-11-14T10:48:28;46.38;;;33.65;;
51732;SDS011;39139;53.144;6.244;2022-11-14T10:51:04;43.72;;;32.33;;
51732;SDS011;39139;53.144;6.244;2022-11-14T10:53:49;47.78;;;33.80;;
51732;SDS011;39139;53.144;6.244;2022-11-14T10:56:25;46.33;;;31.88;;
51732;SDS011;39139;53.144;6.244;2022-11-14T10:58:52;46.50;;;32.65;;
51732;SDS011;39139;53.144;6.244;2022-11-14T11:01:38;48.20;;;32.65;;
51732;SDS011;39139;53.144;6.244;2022-11-14T11:04:17;44.53;;;31.75;;
51732;SDS011;39139;53.144;6.244;2022-11-14T11:06:50;47.33;;;33.58;;
51732;SDS011;39139;53.144;6.244;2022-11-14T11:09:21;44.83;;;32.80;;
51732;SDS011;39139;53.144;6.244;2022-11-14T11:14:38;48.58;;;32.78;;
51732;SDS011;39139;53.144;6.244;2022-11-14T11:19:35;42.17;;;31.42;;
51732;SDS011;39139;53.144;6.244;2022-11-14T11:22:08;42.80;;;32.97;;
51732;SDS011;39139;53.144;6.244;2022-11-14T11:24:49;45.60;;;31.17;;
51732;SDS011;39139;53.144;6.244;2022-11-14T11:29:48;45.80;;;31.55;;
51732;SDS011;39139;53.144;6.244;2022-11-14T11:32:33;44.63;;;31.90;;
51732;SDS011;39139;53.144;6.244;2022-11-14T11:35:00;46.60;;;31.40;;
51732;SDS011;39139;53.144;6.244;2022-11-14T11:40:15;42.60;;;31.05;;
51732;SDS011;39139;53.144;6.244;2022-11-14T11:45:31;48.15;;;31.92;;
51732;SDS011;39139;53.144;6.244;2022-11-14T11:48:20;43.92;;;29.80;;
51732;SDS011;39139;53.144;6.244;2022-11-14T11:50:46;39.03;;;27.33;;
51732;SDS011;39139;53.144;6.244;2022-11-14T11:56:17;40.90;;;28.55;;
51732;SDS011;39139;53.144;6.244;2022-11-14T11:58:47;41.92;;;29.88;;
51732;SDS011;39139;53.144;6.244;2022-11-14T12:01:15;47.17;;;30.48;;
51732;SDS011;39139;53.144;6.244;2022-11-14T12:03:48;44.92;;;29.30;;
51732;SDS011;39139;53.144;6.244;2022-11-14T12:06:19;45.42;;;31.80;;
51732;SDS011;39139;53.144;6.244;2022-11-14T12:11:43;48.28;;;30.33;;
51732;SDS011;39139;53.144;6.244;2022-11-14T12:14:29;42.55;;;30.17;;
51732;SDS011;39139;53.144;6.244;2022-11-14T12:28:04;42.47;;;29.23;;
51732;SDS011;39139;53.144;6.244;2022-11-14T12:30:54;42.28;;;29.65;;
51732;SDS011;39139;53.144;6.244;2022-11-14T12:33:24;43.67;;;30.88;;
51732;SDS011;39139;53.144;6.244;2022-11-14T12:35:52;44.40;;;30.52;;
51732;SDS011;39139;53.144;6.244;2022-11-14T12:38:20;42.88;;;28.70;;
51732;SDS011;39139;53.144;6.244;2022-11-14T12:40:51;45.08;;;30.63;;
51732;SDS011;39139;53.144;6.244;2022-11-14T12:46:11;42.88;;;30.40;;
51732;SDS011;39139;53.144;6.244;2022-11-14T12:48:41;41.45;;;28.67;;
51732;SDS011;39139;53.144;6.244;2022-11-14T12:51:56;42.25;;;28.83;;
51732;SDS011;39139;53.144;6.244;2022-11-14T12:54:00;39.30;;;28.98;;
51732;SDS011;39139;53.144;6.244;2022-11-14T13:10:40;40.83;;;28.25;;
51732;SDS011;39139;53.144;6.244;2022-11-14T13:13:10;43.95;;;29.20;;
51732;SDS011;39139;53.144;6.244;2022-11-14T13:15:59;40.08;;;29.83;;
51732;SDS011;39139;53.144;6.244;2022-11-14T13:18:51;39.97;;;29.08;;
51732;SDS011;39139;53.144;6.244;2022-11-14T13:22:16;39.22;;;28.92;;
51732;SDS011;39139;53.144;6.244;2022-11-14T13:27:23;41.53;;;28.05;;
51732;SDS011;39139;53.144;6.244;2022-11-14T13:29:49;43.67;;;30.42;;
51732;SDS011;39139;53.144;6.244;2022-11-14T13:35:14;41.95;;;30.40;;
51732;SDS011;39139;53.144;6.244;2022-11-14T13:43:38;43.22;;;30.30;;
51732;SDS011;39139;53.144;6.244;2022-11-14T13:51:28;42.67;;;31.00;;
51732;SDS011;39139;53.144;6.244;2022-11-14T13:53:55;41.28;;;29.58;;
51732;SDS011;39139;53.144;6.244;2022-11-14T14:01:53;42.63;;;30.42;;
51732;SDS011;39139;53.144;6.244;2022-11-14T14:10:29;46.85;;;29.17;;
51732;SDS011;39139;53.144;6.244;2022-11-14T14:16:03;39.63;;;28.17;;
51732;SDS011;39139;53.144;6.244;2022-11-14T14:29:26;41.58;;;27.73;;
51732;SDS011;39139;53.144;6.244;2022-11-14T14:32:20;39.60;;;28.20;;
51732;SDS011;39139;53.144;6.244;2022-11-14T14:34:46;39.60;;;27.27;;
51732;SDS011;39139;53.144;6.244;2022-11-14T14:37:20;41.97;;;27.73;;
51732;SDS011;39139;53.144;6.244;2022-11-14T14:39:54;44.67;;;28.40;;
51732;SDS011;39139;53.144;6.244;2022-11-14T14:42:21;39.67;;;28.65;;
51732;SDS011;39139;53.144;6.244;2022-11-14T14:44:47;44.40;;;28.00;;
51732;SDS011;39139;53.144;6.244;2022-11-14T14:47:14;41.63;;;26.98;;
51732;SDS011;39139;53.144;6.244;2022-11-14T14:49:41;40.83;;;28.38;;
51732;SDS011;39139;53.144;6.244;2022-11-14T14:52:41;37.20;;;26.92;;
51732;SDS011;39139;53.144;6.244;2022-11-14T14:55:01;40.05;;;26.95;;
51732;SDS011;39139;53.144;6.244;2022-11-14T14:57:29;43.88;;;28.30;;
51732;SDS011;39139;53.144;6.244;2022-11-14T14:59:58;38.97;;;27.10;;
51732;SDS011;39139;53.144;6.244;2022-11-14T15:02:30;39.22;;;27.15;;
51732;SDS011;39139;53.144;6.244;2022-11-14T15:04:56;39.50;;;27.45;;
51732;SDS011;39139;53.144;6.244;2022-11-14T15:07:23;42.50;;;28.77;;
51732;SDS011;39139;53.144;6.244;2022-11-14T15:09:56;40.20;;;27.55;;
51732;SDS011;39139;53.144;6.244;2022-11-14T15:12:24;39.88;;;26.20;;
51732;SDS011;39139;53.144;6.244;2022-11-14T15:14:55;37.83;;;28.30;;
51732;SDS011;39139;53.144;6.244;2022-11-14T15:17:22;40.25;;;28.40;;
51732;SDS011;39139;53.144;6.244;2022-11-14T15:19:50;38.60;;;26.75;;
51732;SDS011;39139;53.144;6.244;2022-11-14T15:24:43;39.15;;;27.75;;
51732;SDS011;39139;53.144;6.244;2022-11-14T15:27:26;39.92;;;27.23;;
51732;SDS011;39139;53.144;6.244;2022-11-14T15:29:53;38.40;;;27.58;;
51732;SDS011;39139;53.144;6.244;2022-11-14T15:32:23;43.20;;;28.30;;
51732;SDS011;39139;53.144;6.244;2022-11-14T15:35:06;40.45;;;27.50;;
51732;SDS011;39139;53.144;6.244;2022-11-14T15:37:32;40.10;;;27.15;;
51732;SDS011;39139;53.144;6.244;2022-11-14T15:42:44;38.67;;;24.55;;
51732;SDS011;39139;53.144;6.244;2022-11-14T15:45:20;34.75;;;22.67;;
51732;SDS011;39139;53.144;6.244;2022-11-14T15:47:46;38.38;;;24.63;;
51732;SDS011;39139;53.144;6.244;2022-11-14T15:52:45;39.47;;;23.58;;
51732;SDS011;39139;53.144;6.244;2022-11-14T15:55:14;38.38;;;24.85;;
51732;SDS011;39139;53.144;6.244;2022-11-14T15:57:42;30.65;;;20.77;;
51732;SDS011;39139;53.144;6.244;2022-11-14T16:00:14;27.13;;;19.77;;
51732;SDS011;39139;53.144;6.244;2022-11-14T16:02:57;26.33;;;18.98;;
51732;SDS011;39139;53.144;6.244;2022-11-14T16:05:23;23.45;;;16.88;;
51732;SDS011;39139;53.144;6.244;2022-11-14T16:07:52;21.88;;;15.55;;
51732;SDS011;39139;53.144;6.244;2022-11-14T16:10:19;24.25;;;16.20;;
51732;SDS011;39139;53.144;6.244;2022-11-14T16:12:46;20.85;;;16.05;;
51732;SDS011;39139;53.144;6.244;2022-11-14T16:15:13;20.98;;;15.73;;
51732;SDS011;39139;53.144;6.244;2022-11-14T16:17:40;17.02;;;13.57;;
51732;SDS011;39139;53.144;6.244;2022-11-14T16:20:18;20.73;;;15.15;;
51732;SDS011;39139;53.144;6.244;2022-11-14T16:22:46;20.20;;;14.85;;
51732;SDS011;39139;53.144;6.244;2022-11-14T16:27:44;18.92;;;13.98;;
51732;SDS011;39139;53.144;6.244;2022-11-14T16:30:11;19.63;;;14.50;;
51732;SDS011;39139;53.144;6.244;2022-11-14T16:32:41;18.60;;;14.63;;
51732;SDS011;39139;53.144;6.244;2022-11-14T16:35:11;19.52;;;14.00;;
51732;SDS011;39139;53.144;6.244;2022-11-14T16:37:44;20.08;;;14.40;;